Time,TemperatureF,DewpointF,PressureIn,WindDirection,WindDirectionDegrees,WindSpeedMPH,WindSpeedGustMPH,Humidity,HourlyPrecipIn,Conditions,Clouds,dailyrainin,SolarRadiationWatts/m^2,SoftwareType,DateUTC
2013-06-28 00:02:00,78.0,73.0,-100.00,SW,221,1.0,5.0,84,0.00,,,0.00,0.000000,,2013-06-28 04:02:00,
2013-06-28 00:43:00,77.0,74.0,-100.00,SW,215,3.0,7.0,89,0.00,,,0.00,0.000000,,2013-06-28 04:43:00,
2013-06-28 00:53:00,77.0,74.0,-100.00,SW,215,3.0,7.0,89,0.00,,,0.00,0.000000,,2013-06-28 04:53:00,
2013-06-28 01:01:00,77.0,74.0,-100.00,SW,215,3.0,7.0,89,0.00,,,0.00,0.000000,,2013-06-28 05:01:00,
2013-06-28 01:11:00,77.0,74.0,-100.00,SW,215,3.0,7.0,89,0.00,,,0.00,0.000000,,2013-06-28 05:11:00,
2013-06-28 01:12:00,77.0,74.0,-100.00,SW,215,2.0,7.0,90,0.00,,,0.00,0.000000,,2013-06-28 05:12:00,
2013-06-28 01:43:00,77.0,74.0,-100.00,SW,215,2.0,7.0,90,0.00,,,0.00,0.000000,,2013-06-28 05:43:00,
2013-06-28 01:53:00,77.0,74.0,-100.00,SW,215,2.0,7.0,90,0.00,,,0.00,0.000000,,2013-06-28 05:53:00,
2013-06-28 02:02:00,77.0,74.0,-100.00,SW,215,2.0,7.0,90,0.00,,,0.00,0.000000,,2013-06-28 06:02:00,
2013-06-28 02:43:00,76.0,74.0,-100.00,SW,220,0.0,4.0,92,0.00,,,0.00,0.000000,,2013-06-28 06:43:00,
2013-06-28 02:52:00,76.0,74.0,-100.00,SW,220,0.0,4.0,92,0.00,,,0.00,0.000000,,2013-06-28 06:52:00,
2013-06-28 03:01:00,76.0,74.0,-100.00,SW,220,0.0,4.0,92,0.00,,,0.00,0.000000,,2013-06-28 07:01:00,
2013-06-28 03:11:00,76.0,74.0,-100.00,SW,220,0.0,4.0,92,0.00,,,0.00,0.000000,,2013-06-28 07:11:00,
2013-06-28 03:43:00,75.0,73.0,-100.00,SSE,161,1.0,4.0,94,0.00,,,0.00,0.000000,,2013-06-28 07:43:00,
2013-06-28 03:52:00,75.0,73.0,-100.00,SSE,161,1.0,4.0,94,0.00,,,0.00,0.000000,,2013-06-28 07:52:00,
2013-06-28 04:02:00,75.0,73.0,-100.00,SSE,161,1.0,4.0,94,0.00,,,0.00,0.000000,,2013-06-28 08:02:00,
2013-06-28 04:11:00,75.0,73.0,-100.00,SSE,161,1.0,4.0,94,0.00,,,0.00,0.000000,,2013-06-28 08:11:00,
2013-06-28 04:43:00,74.0,72.0,-100.00,SSW,196,1.0,4.0,94,0.00,,,0.00,0.000000,,2013-06-28 08:43:00,
2013-06-28 04:52:00,74.0,72.0,-100.00,SSW,196,1.0,4.0,94,0.00,,,0.00,0.000000,,2013-06-28 08:52:00,
2013-06-28 05:02:00,74.0,72.0,-100.00,SSW,196,1.0,4.0,94,0.00,,,0.00,0.000000,,2013-06-28 09:02:00,
2013-06-28 05:11:00,74.0,72.0,-100.00,SSW,196,1.0,4.0,94,0.00,,,0.00,0.000000,,2013-06-28 09:11:00,
2013-06-28 05:12:00,73.0,71.0,-100.00,SSW,200,1.0,4.0,95,0.00,,,0.00,0.000000,,2013-06-28 09:12:00,
2013-06-28 05:42:00,73.0,71.0,-100.00,SSW,200,1.0,4.0,95,0.00,,,0.00,0.000000,,2013-06-28 09:42:00,
2013-06-28 05:52:00,73.0,71.0,-100.00,SSW,200,1.0,4.0,95,0.00,,,0.00,0.000000,,2013-06-28 09:52:00,
2013-06-28 06:02:00,73.0,71.0,-100.00,SSW,200,1.0,4.0,95,0.00,,,0.00,0.000000,,2013-06-28 10:02:00,
2013-06-28 06:42:00,72.0,70.0,-100.00,SW,220,2.0,4.0,95,0.00,,,0.00,0.000000,,2013-06-28 10:42:00,
2013-06-28 06:52:00,72.0,70.0,-100.00,SW,220,2.0,4.0,95,0.00,,,0.00,0.000000,,2013-06-28 10:52:00,
2013-06-28 07:02:00,72.0,70.0,-100.00,SW,220,2.0,4.0,95,0.00,,,0.00,0.000000,,2013-06-28 11:02:00,
2013-06-28 07:11:00,72.0,70.0,-100.00,SW,220,2.0,4.0,95,0.00,,,0.00,0.000000,,2013-06-28 11:11:00,
2013-06-28 07:12:00,72.0,70.0,-100.00,SW,214,1.0,4.0,95,0.00,,,0.00,9.000000,,2013-06-28 11:12:00,
2013-06-28 07:43:00,72.0,70.0,-100.00,SW,214,1.0,4.0,95,0.00,,,0.00,9.000000,,2013-06-28 11:43:00,
2013-06-28 07:53:00,72.0,70.0,-100.00,SW,214,1.0,4.0,95,0.00,,,0.00,9.000000,,2013-06-28 11:53:00,
2013-06-28 08:02:00,72.0,70.0,-100.00,SW,214,1.0,4.0,95,0.00,,,0.00,9.000000,,2013-06-28 12:02:00,
2013-06-28 08:43:00,75.0,72.0,-100.00,SW,224,1.0,6.0,89,0.00,,,0.00,51.000000,,2013-06-28 12:43:00,
2013-06-28 08:52:00,75.0,72.0,-100.00,SW,224,1.0,6.0,89,0.00,,,0.00,51.000000,,2013-06-28 12:52:00,
2013-06-28 09:01:00,75.0,72.0,-100.00,SW,224,1.0,6.0,89,0.00,,,0.00,51.000000,,2013-06-28 13:01:00,
2013-06-28 09:11:00,75.0,72.0,-100.00,SW,224,1.0,6.0,89,0.00,,,0.00,51.000000,,2013-06-28 13:11:00,
2013-06-28 09:12:00,78.0,72.0,-100.00,WSW,242,2.0,7.0,82,0.00,,,0.00,74.000000,,2013-06-28 13:12:00,
2013-06-28 09:43:00,78.0,72.0,-100.00,WSW,242,2.0,7.0,82,0.00,,,0.00,74.000000,,2013-06-28 13:43:00,
2013-06-28 09:53:00,78.0,72.0,-100.00,WSW,242,2.0,7.0,82,0.00,,,0.00,74.000000,,2013-06-28 13:53:00,
2013-06-28 10:02:00,78.0,72.0,-100.00,WSW,242,2.0,7.0,82,0.00,,,0.00,74.000000,,2013-06-28 14:02:00,
2013-06-28 10:44:00,82.0,73.0,-100.00,WNW,289,1.0,7.0,75,0.00,,,-99.99,157.000000,,2013-06-28 14:44:00,
2013-06-28 10:53:00,82.0,73.0,-100.00,WNW,289,1.0,7.0,75,0.00,,,-99.99,157.000000,,2013-06-28 14:53:00,
2013-06-28 11:02:00,82.0,73.0,-100.00,WNW,289,1.0,7.0,75,0.00,,,-99.99,157.000000,,2013-06-28 15:02:00,
2013-06-28 11:11:00,82.0,73.0,-100.00,WNW,289,1.0,7.0,75,0.00,,,-99.99,157.000000,,2013-06-28 15:11:00,
2013-06-28 11:43:00,86.0,73.0,-100.00,SW,235,2.0,8.0,66,0.00,,,0.00,522.000000,,2013-06-28 15:43:00,
2013-06-28 11:52:00,86.0,73.0,-100.00,SW,235,2.0,8.0,66,0.00,,,0.00,522.000000,,2013-06-28 15:52:00,
2013-06-28 12:02:00,86.0,73.0,-100.00,SW,235,2.0,8.0,66,0.00,,,0.00,522.000000,,2013-06-28 16:02:00,
2013-06-28 12:11:00,86.0,73.0,-100.00,SW,235,2.0,8.0,66,0.00,,,0.00,522.000000,,2013-06-28 16:11:00,
2013-06-28 12:44:00,89.0,73.0,-100.00,WNW,302,1.0,8.0,59,0.00,,,0.00,813.000000,,2013-06-28 16:44:00,
2013-06-28 12:53:00,89.0,73.0,-100.00,WNW,302,1.0,8.0,59,0.00,,,0.00,813.000000,,2013-06-28 16:53:00,
2013-06-28 13:02:00,89.0,73.0,-100.00,WNW,302,1.0,8.0,59,0.00,,,0.00,813.000000,,2013-06-28 17:02:00,
2013-06-28 13:11:00,89.0,73.0,-100.00,WNW,302,1.0,8.0,59,0.00,,,0.00,813.000000,,2013-06-28 17:11:00,
2013-06-28 13:44:00,90.0,72.0,-100.00,West,268,2.0,8.0,55,0.00,,,0.00,769.000000,,2013-06-28 17:44:00,
2013-06-28 13:52:00,90.0,72.0,-100.00,West,268,2.0,8.0,55,0.00,,,0.00,769.000000,,2013-06-28 17:52:00,
2013-06-28 14:02:00,90.0,72.0,-100.00,West,268,2.0,8.0,55,0.00,,,0.00,769.000000,,2013-06-28 18:02:00,
2013-06-28 14:11:00,90.0,72.0,-100.00,West,268,2.0,8.0,55,0.00,,,0.00,769.000000,,2013-06-28 18:11:00,
2013-06-28 14:43:00,92.0,73.0,-100.00,WNW,284,1.0,7.0,54,0.00,,,0.00,886.000000,,2013-06-28 18:43:00,
2013-06-28 14:52:00,92.0,73.0,-100.00,WNW,284,1.0,7.0,54,0.00,,,0.00,886.000000,,2013-06-28 18:52:00,
2013-06-28 15:01:00,92.0,73.0,-100.00,WNW,284,1.0,7.0,54,0.00,,,0.00,886.000000,,2013-06-28 19:01:00,
2013-06-28 15:11:00,92.0,73.0,-100.00,WNW,284,1.0,7.0,54,0.00,,,0.00,886.000000,,2013-06-28 19:11:00,
2013-06-28 15:43:00,94.0,72.0,-100.00,West,272,1.0,8.0,50,0.00,,,0.00,862.000000,,2013-06-28 19:43:00,
2013-06-28 15:53:00,94.0,72.0,-100.00,West,272,1.0,8.0,50,0.00,,,0.00,862.000000,,2013-06-28 19:53:00,
2013-06-28 16:02:00,94.0,72.0,-100.00,West,272,1.0,8.0,50,0.00,,,0.00,862.000000,,2013-06-28 20:02:00,
2013-06-28 16:11:00,94.0,72.0,-100.00,West,272,1.0,8.0,50,0.00,,,0.00,862.000000,,2013-06-28 20:11:00,
2013-06-28 16:43:00,93.0,70.0,-100.00,SW,215,2.0,6.0,48,0.00,,,0.00,637.000000,,2013-06-28 20:43:00,
2013-06-28 16:52:00,93.0,70.0,-100.00,SW,215,2.0,6.0,48,0.00,,,0.00,637.000000,,2013-06-28 20:52:00,
2013-06-28 17:02:00,93.0,70.0,-100.00,SW,215,2.0,6.0,48,0.00,,,0.00,637.000000,,2013-06-28 21:02:00,
2013-06-28 17:11:00,93.0,70.0,-100.00,SW,215,2.0,6.0,48,0.00,,,0.00,637.000000,,2013-06-28 21:11:00,
2013-06-28 17:43:00,93.0,71.0,-100.00,SW,220,2.0,6.0,49,0.00,,,0.00,234.000000,,2013-06-28 21:43:00,
2013-06-28 17:53:00,93.0,71.0,-100.00,SW,220,2.0,6.0,49,0.00,,,0.00,234.000000,,2013-06-28 21:53:00,
2013-06-28 18:01:00,93.0,71.0,-100.00,SW,220,2.0,6.0,49,0.00,,,0.00,234.000000,,2013-06-28 22:01:00,
2013-06-28 18:11:00,93.0,71.0,-100.00,SW,220,2.0,6.0,49,0.00,,,0.00,234.000000,,2013-06-28 22:11:00,
2013-06-28 18:43:00,91.0,71.0,-100.00,SSW,200,3.0,10.0,52,0.00,,,0.00,136.000000,,2013-06-28 22:43:00,
2013-06-28 18:53:00,91.0,71.0,-100.00,SSW,200,3.0,10.0,52,0.00,,,0.00,136.000000,,2013-06-28 22:53:00,
2013-06-28 19:02:00,91.0,71.0,-100.00,SSW,200,3.0,10.0,52,0.00,,,0.00,136.000000,,2013-06-28 23:02:00,
2013-06-28 19:11:00,91.0,71.0,-100.00,SSW,200,3.0,10.0,52,0.00,,,0.00,136.000000,,2013-06-28 23:11:00,
2013-06-28 19:34:00,87.0,73.0,-100.00,SSW,210,2.0,12.0,63,0.00,,,0.00,82.000000,,2013-06-28 23:34:00,
2013-06-28 19:43:00,87.0,73.0,-100.00,SSW,210,2.0,12.0,63,0.00,,,0.00,82.000000,,2013-06-28 23:43:00,
2013-06-28 19:53:00,87.0,73.0,-100.00,SSW,210,2.0,12.0,63,0.00,,,0.00,82.000000,,2013-06-28 23:53:00,
2013-06-28 20:02:00,87.0,73.0,-100.00,SSW,210,2.0,12.0,63,0.00,,,0.00,82.000000,,2013-06-29 00:02:00,
2013-06-28 20:11:00,87.0,73.0,-100.00,SSW,210,2.0,12.0,63,0.00,,,0.00,82.000000,,2013-06-29 00:11:00,
2013-06-28 21:32:00,83.0,70.0,-100.00,West,265,2.0,11.0,65,-99.99,,,0.00,0.000000,,2013-06-29 01:32:00,
2013-06-28 21:42:00,83.0,70.0,-100.00,West,265,2.0,11.0,65,-99.99,,,0.00,0.000000,,2013-06-29 01:42:00,
2013-06-28 21:52:00,83.0,70.0,-100.00,West,265,2.0,11.0,65,-99.99,,,0.00,0.000000,,2013-06-29 01:52:00,
2013-06-28 22:01:00,83.0,70.0,-100.00,West,265,2.0,11.0,65,-99.99,,,0.00,0.000000,,2013-06-29 02:01:00,
2013-06-28 22:11:00,83.0,70.0,-100.00,West,265,2.0,11.0,65,-99.99,,,0.00,0.000000,,2013-06-29 02:11:00,
2013-06-28 22:31:00,79.0,68.0,-100.00,SW,222,3.0,10.0,68,0.00,,,0.00,0.000000,,2013-06-29 02:31:00,
2013-06-28 22:41:00,79.0,68.0,-100.00,SW,222,3.0,10.0,68,0.00,,,0.00,0.000000,,2013-06-29 02:41:00,
2013-06-28 22:51:00,79.0,68.0,-100.00,SW,222,3.0,10.0,68,0.00,,,0.00,0.000000,,2013-06-29 02:51:00,
2013-06-28 23:01:00,79.0,68.0,-100.00,SW,222,3.0,10.0,68,0.00,,,0.00,0.000000,,2013-06-29 03:01:00,
2013-06-28 23:11:00,79.0,68.0,-100.00,SW,222,3.0,10.0,68,0.00,,,0.00,0.000000,,2013-06-29 03:11:00,
2013-06-28 23:32:00,76.0,67.0,-100.00,WSW,243,2.0,8.0,73,0.00,,,0.00,0.000000,,2013-06-29 03:32:00,
2013-06-28 23:41:00,76.0,67.0,-100.00,WSW,243,2.0,8.0,73,0.00,,,0.00,0.000000,,2013-06-29 03:41:00,
2013-06-28 23:51:00,76.0,67.0,-100.00,WSW,243,2.0,8.0,73,0.00,,,0.00,0.000000,,2013-06-29 03:51:00,